createdAt,value
2018-05-03T00:00:09.515Z,13.69
2018-05-03T00:01:09.521Z,13.65
2018-05-03T00:02:09.520Z,13.58
2018-05-03T00:03:09.527Z,13.69
2018-05-03T00:04:09.534Z,13.69
2018-05-03T00:05:09.530Z,13.67
2018-05-03T00:06:09.542Z,13.69
2018-05-03T00:07:09.538Z,13.56
2018-05-03T00:08:09.545Z,13.56
2018-05-03T00:09:09.543Z,13.58
2018-05-03T00:10:09.551Z,13.61
2018-05-03T00:11:09.547Z,13.56
2018-05-03T00:12:09.554Z,13.59
2018-05-03T00:13:09.547Z,13.58
2018-05-03T00:14:09.560Z,13.54
2018-05-03T00:15:09.579Z,13.52
2018-05-03T00:16:09.573Z,13.43
2018-05-03T00:17:09.564Z,13.46
2018-05-03T00:18:09.576Z,13.46
2018-05-03T00:19:09.570Z,13.51
2018-05-03T00:20:09.575Z,13.44
2018-05-03T00:21:09.569Z,13.49
2018-05-03T00:22:09.582Z,13.46
2018-05-03T00:23:09.576Z,13.47
2018-05-03T00:24:09.586Z,13.51
2018-05-03T00:25:09.583Z,13.43
2018-05-03T00:26:09.590Z,13.43
2018-05-03T00:27:09.589Z,13.41
2018-05-03T00:28:09.595Z,13.44
2018-05-03T00:29:09.601Z,13.44
2018-05-03T00:30:09.594Z,13.49
2018-05-03T00:31:09.605Z,13.40
2018-05-03T00:32:09.600Z,13.47
2018-05-03T00:33:09.610Z,13.43
2018-05-03T00:34:09.606Z,13.40
2018-05-03T00:35:09.617Z,13.49
2018-05-03T00:36:09.616Z,13.41
2018-05-03T00:37:09.613Z,13.52
2018-05-03T00:38:09.623Z,13.41
2018-05-03T00:39:09.624Z,13.46
2018-05-03T00:40:09.632Z,13.44
2018-05-03T00:41:09.643Z,13.43
2018-05-03T00:42:09.636Z,13.43
2018-05-03T00:43:09.634Z,13.55
2018-05-03T00:44:09.636Z,13.40
2018-05-03T00:45:09.643Z,13.41
2018-05-03T00:46:09.638Z,13.43
2018-05-03T00:47:09.641Z,13.47
2018-05-03T00:48:09.647Z,13.43
2018-05-03T00:49:09.649Z,13.51
2018-05-03T00:50:09.653Z,13.43
2018-05-03T00:51:09.652Z,13.41
2018-05-03T00:52:09.662Z,13.46
2018-05-03T00:53:09.665Z,13.49
2018-05-03T00:54:09.660Z,13.44
2018-05-03T00:55:09.663Z,13.46
2018-05-03T00:56:09.662Z,13.44
2018-05-03T00:57:09.747Z,13.47
2018-05-03T00:58:09.749Z,13.51
2018-05-03T00:59:09.676Z,13.46
2018-05-03T01:00:09.679Z,13.44
2018-05-03T01:01:09.680Z,13.44
2018-05-03T01:02:09.686Z,13.46
2018-05-03T01:03:09.689Z,13.52
2018-05-03T01:04:09.694Z,13.44
2018-05-03T01:05:10.440Z,13.47
2018-05-03T01:06:09.689Z,13.41
2018-05-03T01:07:09.705Z,13.46
2018-05-03T01:08:09.693Z,13.37
2018-05-03T01:09:09.695Z,13.41
2018-05-03T01:10:09.700Z,13.38
2018-05-03T01:11:09.749Z,13.38
2018-05-03T01:12:09.707Z,13.37
2018-05-03T01:13:09.714Z,13.40
2018-05-03T01:14:09.714Z,13.47
2018-05-03T01:15:09.725Z,13.40
2018-05-03T01:16:09.718Z,13.37
2018-05-03T01:17:09.723Z,13.44
2018-05-03T01:18:09.728Z,13.41
2018-05-03T01:19:09.737Z,13.40
2018-05-03T01:20:09.727Z,13.27
2018-05-03T01:21:09.732Z,13.38
2018-05-03T01:22:09.732Z,13.32
2018-05-03T01:23:09.736Z,13.36
2018-05-03T01:24:09.754Z,13.25
2018-05-03T01:25:09.742Z,13.27
2018-05-03T01:26:09.744Z,13.27
2018-05-03T01:27:09.753Z,13.21
2018-05-03T01:28:09.745Z,13.24
2018-05-03T01:29:09.752Z,13.18
2018-05-03T01:30:09.755Z,13.21
2018-05-03T01:31:09.754Z,13.21
2018-05-03T01:32:09.760Z,13.14
2018-05-03T01:33:09.762Z,13.12
2018-05-03T01:34:09.763Z,13.20
2018-05-03T01:35:09.765Z,13.12
2018-05-03T01:36:09.777Z,13.21
2018-05-03T01:37:09.771Z,13.20
2018-05-03T01:38:09.776Z,13.15
2018-05-03T01:39:09.785Z,13.21
2018-05-03T01:40:09.783Z,13.21
2018-05-03T01:41:09.792Z,13.15
2018-05-03T01:42:09.796Z,13.14
2018-05-03T01:43:09.790Z,13.22
2018-05-03T01:44:09.793Z,13.14
2018-05-03T01:45:09.798Z,13.14
2018-05-03T01:46:09.794Z,13.14
2018-05-03T01:47:09.804Z,13.06
2018-05-03T01:48:09.806Z,13.15
2018-05-03T01:49:09.808Z,13.15
2018-05-03T01:50:09.828Z,13.12
2018-05-03T01:51:09.823Z,13.06
2018-05-03T01:52:09.809Z,13.03
2018-05-03T01:53:09.814Z,13.04
2018-05-03T01:54:09.820Z,13.03
2018-05-03T01:55:09.828Z,13.03
2018-05-03T01:56:09.819Z,12.99
2018-05-03T01:57:09.823Z,13.02
2018-05-03T01:58:09.830Z,13.04
2018-05-03T01:59:09.834Z,13.03
2018-05-03T02:00:09.829Z,13.02
2018-05-03T02:01:09.831Z,12.92
2018-05-03T02:02:09.843Z,12.92
2018-05-03T02:03:09.841Z,12.89
2018-05-03T02:04:09.846Z,12.87
2018-05-03T02:05:09.840Z,12.89
2018-05-03T02:06:09.851Z,12.93
2018-05-03T02:07:09.848Z,12.85
2018-05-03T02:08:09.860Z,12.89
2018-05-03T02:09:09.853Z,12.95
2018-05-03T02:10:09.858Z,12.92
2018-05-03T02:11:09.867Z,12.89
2018-05-03T02:12:09.865Z,12.89
2018-05-03T02:13:09.870Z,12.88
2018-05-03T02:14:09.865Z,12.85
2018-05-03T02:15:09.876Z,12.89
2018-05-03T02:16:09.873Z,12.82
2018-05-03T02:17:09.882Z,12.89
2018-05-03T02:18:09.874Z,12.85
2018-05-03T02:19:09.881Z,12.74
2018-05-03T02:20:09.883Z,12.78
2018-05-03T02:21:09.884Z,12.75
2018-05-03T02:22:09.889Z,12.67
2018-05-03T02:23:09.896Z,12.75
2018-05-03T02:24:09.895Z,12.69
2018-05-03T02:25:09.900Z,12.82
2018-05-03T02:26:09.898Z,12.70
2018-05-03T02:27:09.904Z,12.84
2018-05-03T02:28:09.930Z,12.84
2018-05-03T02:29:09.904Z,12.87
2018-05-03T02:30:09.905Z,12.89
2018-05-03T02:31:09.920Z,12.89
2018-05-03T02:32:09.911Z,12.88
2018-05-03T02:33:09.917Z,12.88
2018-05-03T02:34:09.920Z,12.96
2018-05-03T02:35:09.922Z,13.02
2018-05-03T02:36:09.939Z,13.12
2018-05-03T02:37:09.943Z,13.07
2018-05-03T02:38:09.946Z,13.07
2018-05-03T02:39:09.939Z,13.09
2018-05-03T02:40:09.941Z,13.11
2018-05-03T02:41:09.943Z,13.02
2018-05-03T02:42:09.936Z,13.07
2018-05-03T02:43:09.947Z,13.04
2018-05-03T02:44:09.947Z,13.17
2018-05-03T02:45:09.948Z,13.17
2018-05-03T02:46:09.959Z,13.17
2018-05-03T02:47:09.952Z,13.18
2018-05-03T02:48:09.962Z,13.21
2018-05-03T02:49:09.960Z,13.21
2018-05-03T02:50:09.965Z,13.21
2018-05-03T02:51:09.965Z,13.18
2018-05-03T02:52:09.978Z,13.21
2018-05-03T02:53:09.972Z,13.24
2018-05-03T02:54:09.977Z,13.27
2018-05-03T02:55:09.977Z,13.22
2018-05-03T02:56:09.981Z,13.27
2018-05-03T02:57:09.980Z,13.33
2018-05-03T02:58:09.989Z,13.36
2018-05-03T02:59:09.986Z,13.30
2018-05-03T03:00:09.994Z,13.36
2018-05-03T03:01:09.991Z,13.41
2018-05-03T03:02:09.999Z,13.37
2018-05-03T03:03:09.997Z,13.32
2018-05-03T03:04:10.009Z,13.41
2018-05-03T03:05:10.002Z,13.44
2018-05-03T03:06:10.007Z,13.46
2018-05-03T03:07:10.003Z,13.44
2018-05-03T03:08:10.016Z,13.47
2018-05-03T03:09:10.017Z,13.46
2018-05-03T03:10:10.015Z,13.41
2018-05-03T03:11:10.020Z,13.38
2018-05-03T03:12:10.024Z,13.49
2018-05-03T03:13:10.034Z,13.49
2018-05-03T03:14:10.027Z,13.44
2018-05-03T03:15:10.036Z,13.44
2018-05-03T03:16:10.029Z,13.56
2018-05-03T03:17:10.037Z,13.52
2018-05-03T03:18:10.049Z,13.56
2018-05-03T03:19:10.042Z,13.54
2018-05-03T03:20:10.045Z,13.56
2018-05-03T03:21:10.061Z,13.63
2018-05-03T03:22:10.069Z,13.61
2018-05-03T03:23:10.051Z,13.63
2018-05-03T03:24:10.063Z,13.69
2018-05-03T03:25:10.064Z,13.69
2018-05-03T03:26:10.058Z,13.71
2018-05-03T03:27:10.063Z,13.62
2018-05-03T03:28:10.073Z,13.59
2018-05-03T03:29:10.066Z,13.61
2018-05-03T03:30:10.081Z,13.55
2018-05-03T03:31:10.076Z,13.59
2018-05-03T03:32:10.081Z,13.56
2018-05-03T03:33:10.082Z,13.58
2018-05-03T03:34:10.085Z,13.56
2018-05-03T03:35:10.087Z,13.56
2018-05-03T03:36:10.093Z,13.52
2018-05-03T03:37:10.088Z,13.55
2018-05-03T03:38:10.099Z,13.56
2018-05-03T03:39:10.094Z,13.55
2018-05-03T03:40:10.099Z,13.54
2018-05-03T03:41:10.102Z,13.52
2018-05-03T03:42:10.109Z,13.56
2018-05-03T03:43:10.114Z,13.61
2018-05-03T03:44:10.113Z,13.59
2018-05-03T03:45:10.118Z,13.56
2018-05-03T03:46:10.113Z,13.59
2018-05-03T03:47:10.175Z,13.56
2018-05-03T03:48:10.130Z,13.56
2018-05-03T03:49:10.121Z,13.59
2018-05-03T03:50:10.134Z,13.59
2018-05-03T03:51:10.133Z,13.55
2018-05-03T03:52:10.152Z,13.52
2018-05-03T03:53:10.227Z,13.59
2018-05-03T03:54:10.142Z,13.56
2018-05-03T03:55:10.143Z,13.41
2018-05-03T03:56:10.149Z,13.58
2018-05-03T03:57:10.147Z,13.46
2018-05-03T03:58:10.153Z,13.46
2018-05-03T03:59:10.167Z,13.52
2018-05-03T04:00:10.160Z,13.46
2018-05-03T04:01:10.157Z,13.47
2018-05-03T04:02:10.167Z,13.43
2018-05-03T04:03:10.164Z,13.38
2018-05-03T04:04:10.181Z,13.47
2018-05-03T04:05:10.169Z,13.43
2018-05-03T04:06:10.181Z,13.44
2018-05-03T04:07:10.178Z,13.46
2018-05-03T04:08:10.181Z,13.41
2018-05-03T04:09:10.188Z,13.33
2018-05-03T04:10:10.189Z,13.37
2018-05-03T04:11:10.201Z,13.33
2018-05-03T04:12:10.199Z,13.36
2018-05-03T04:13:10.199Z,13.29
2018-05-03T04:14:10.206Z,13.32
2018-05-03T04:15:10.194Z,13.27
2018-05-03T04:16:10.207Z,13.17
2018-05-03T04:17:10.211Z,13.22
2018-05-03T04:18:10.209Z,13.24
2018-05-03T04:19:10.210Z,13.20
2018-05-03T04:20:10.215Z,13.21
2018-05-03T04:21:10.216Z,13.21
2018-05-03T04:22:10.261Z,13.17
2018-05-03T04:23:10.227Z,13.14
2018-05-03T04:24:10.227Z,13.04
2018-05-03T04:25:10.226Z,13.02
2018-05-03T04:26:10.236Z,13.03
2018-05-03T04:27:10.235Z,12.95
2018-05-03T04:28:10.235Z,13.00
2018-05-03T04:29:10.257Z,13.03
2018-05-03T04:30:10.235Z,12.96
2018-05-03T04:31:10.248Z,12.99
2018-05-03T04:32:10.249Z,12.85
2018-05-03T04:33:10.249Z,12.95
2018-05-03T04:34:10.258Z,12.85
2018-05-03T04:35:10.256Z,12.85
2018-05-03T04:36:10.261Z,12.88
2018-05-03T04:37:10.269Z,12.84
2018-05-03T04:38:10.262Z,12.84
2018-05-03T04:39:10.261Z,12.85
2018-05-03T04:40:10.268Z,12.89
2018-05-03T04:41:10.268Z,12.89
2018-05-03T04:42:10.275Z,12.89
2018-05-03T04:43:10.275Z,12.88
2018-05-03T04:44:10.282Z,12.89
2018-05-03T04:45:10.280Z,12.95
2018-05-03T04:46:10.280Z,12.89
2018-05-03T04:47:10.280Z,12.89
2018-05-03T04:48:10.291Z,12.85
2018-05-03T04:49:10.287Z,12.87
2018-05-03T04:50:10.292Z,12.89
2018-05-03T04:51:10.305Z,12.88
2018-05-03T04:52:10.294Z,12.92
2018-05-03T04:53:10.307Z,12.89
2018-05-03T04:54:10.392Z,12.88
2018-05-03T04:55:10.327Z,12.84
2018-05-03T04:56:10.304Z,12.85
2018-05-03T04:57:10.313Z,12.81
2018-05-03T04:58:10.314Z,12.78
2018-05-03T04:59:10.323Z,12.74
2018-05-03T05:00:10.329Z,12.67
2018-05-03T05:01:10.320Z,12.66
2018-05-03T05:02:10.341Z,12.71
2018-05-03T05:03:10.327Z,12.71
2018-05-03T05:04:10.337Z,12.70
2018-05-03T05:05:10.333Z,12.81
2018-05-03T05:06:10.333Z,12.97
2018-05-03T05:07:10.339Z,12.95
2018-05-03T05:08:10.335Z,12.89
2018-05-03T05:09:10.334Z,12.88
2018-05-03T05:10:10.347Z,12.92
2018-05-03T05:11:10.366Z,12.92
2018-05-03T05:12:10.347Z,12.93
2018-05-03T05:13:10.355Z,12.92
2018-05-03T05:14:10.350Z,12.89
2018-05-03T05:15:10.354Z,12.89
2018-05-03T05:16:10.360Z,12.95
2018-05-03T05:17:10.366Z,12.96
2018-05-03T05:18:10.363Z,13.07
2018-05-03T05:19:10.378Z,13.06
2018-05-03T05:20:10.376Z,13.06
2018-05-03T05:21:10.374Z,13.21
2018-05-03T05:22:10.383Z,13.14
2018-05-03T05:23:10.391Z,13.17
2018-05-03T05:24:10.458Z,13.20
2018-05-03T05:25:10.450Z,13.21
2018-05-03T05:26:10.380Z,13.27
2018-05-03T05:27:10.396Z,13.29
2018-05-03T05:28:10.405Z,13.41
2018-05-03T05:29:10.396Z,13.41
2018-05-03T05:30:10.394Z,13.49
2018-05-03T05:31:10.968Z,13.46
2018-05-03T05:32:10.403Z,13.44
2018-05-03T05:33:10.403Z,13.56
2018-05-03T05:34:10.437Z,13.59
2018-05-03T05:35:10.415Z,13.74
2018-05-03T05:36:10.412Z,13.69
2018-05-03T05:37:10.421Z,13.69
2018-05-03T05:38:10.424Z,13.91
2018-05-03T05:39:10.425Z,13.92
2018-05-03T05:40:10.429Z,13.94
2018-05-03T05:41:10.425Z,13.98
2018-05-03T05:42:10.434Z,13.98
2018-05-03T05:43:10.427Z,14.12
2018-05-03T05:44:10.453Z,14.24
2018-05-03T05:45:10.437Z,14.24
2018-05-03T05:46:10.454Z,14.38
2018-05-03T05:47:10.448Z,14.50
2018-05-03T05:48:10.454Z,14.71
2018-05-03T05:49:10.456Z,14.81
2018-05-03T05:50:10.449Z,14.84
2018-05-03T05:51:10.626Z,14.74
2018-05-03T05:52:10.464Z,14.86
2018-05-03T05:53:10.459Z,14.87
2018-05-03T05:54:10.531Z,15.06
2018-05-03T05:55:10.468Z,15.48
2018-05-03T05:56:10.489Z,15.85
2018-05-03T05:57:10.481Z,15.86
2018-05-03T05:58:10.510Z,15.75
2018-05-03T05:59:10.490Z,15.74
2018-05-03T06:00:10.484Z,15.75
2018-05-03T06:01:10.493Z,15.85
2018-05-03T06:02:10.493Z,16.48
2018-05-03T06:03:10.495Z,17.29
2018-05-03T06:04:10.518Z,17.18
2018-05-03T06:05:10.508Z,17.18
2018-05-03T06:06:10.513Z,17.08
2018-05-03T06:07:10.517Z,16.93
2018-05-03T06:08:10.524Z,16.78
2018-05-03T06:09:10.536Z,16.68
2018-05-03T06:10:10.531Z,16.71
2018-05-03T06:11:10.553Z,16.85
2018-05-03T06:12:10.576Z,17.44
2018-05-03T06:13:10.547Z,17.97
2018-05-03T06:14:10.555Z,18.06
2018-05-03T06:15:10.565Z,17.94
2018-05-03T06:16:10.569Z,17.97
2018-05-03T06:17:10.642Z,18.02
2018-05-03T06:18:10.576Z,18.40
2018-05-03T06:19:10.581Z,18.82
2018-05-03T06:20:10.576Z,19.69
2018-05-03T06:21:10.593Z,19.91
2018-05-03T06:22:10.620Z,19.35
2018-05-03T06:23:10.618Z,19.17
2018-05-03T06:24:10.605Z,19.57
2018-05-03T06:25:10.613Z,20.25
2018-05-03T06:26:10.623Z,20.50
2018-05-03T06:27:10.635Z,20.90
2018-05-03T06:28:10.630Z,21.41
2018-05-03T06:29:10.641Z,21.74
2018-05-03T06:30:10.644Z,22.22
2018-05-03T06:31:10.655Z,21.99
2018-05-03T06:32:10.662Z,21.21
2018-05-03T06:33:10.671Z,20.99
2018-05-03T06:34:10.675Z,21.23
2018-05-03T06:35:10.682Z,20.51
2018-05-03T06:36:10.700Z,20.39
2018-05-03T06:37:10.719Z,20.43
2018-05-03T06:38:10.720Z,20.91
2018-05-03T06:39:10.722Z,22.22
2018-05-03T06:40:10.728Z,22.75
2018-05-03T06:41:10.741Z,22.07
2018-05-03T06:42:10.748Z,22.10
2018-05-03T06:43:10.759Z,21.83
2018-05-03T06:44:10.768Z,22.17
2018-05-03T06:45:10.805Z,22.60
2018-05-03T06:46:10.850Z,22.65
2018-05-03T06:47:10.806Z,23.19
2018-05-03T06:48:10.815Z,22.65
2018-05-03T06:49:10.825Z,21.74
2018-05-03T06:50:10.820Z,21.30
2018-05-03T06:51:10.886Z,21.72
2018-05-03T06:52:10.855Z,22.90
2018-05-03T06:53:10.866Z,23.26
2018-05-03T06:54:10.866Z,23.71
2018-05-03T06:55:10.877Z,23.57
2018-05-03T06:56:10.920Z,24.53
2018-05-03T06:57:10.899Z,24.61
2018-05-03T06:58:10.988Z,24.20
2018-05-03T06:59:10.928Z,23.15
2018-05-03T07:00:10.935Z,22.69
2018-05-03T07:01:10.953Z,22.64
2018-05-03T07:02:10.961Z,22.60
2018-05-03T07:03:11.012Z,23.01
2018-05-03T07:04:11.082Z,23.35
2018-05-03T07:05:10.995Z,23.40
2018-05-03T07:06:11.015Z,24.10
2018-05-03T07:07:11.017Z,24.76
2018-05-03T07:08:11.044Z,24.71
2018-05-03T07:09:11.050Z,25.37
2018-05-03T07:10:11.082Z,25.80
2018-05-03T07:11:11.101Z,25.84
2018-05-03T07:12:11.093Z,26.27
2018-05-03T07:13:11.099Z,26.46
2018-05-03T07:14:11.235Z,26.12
2018-05-03T07:15:11.123Z,25.42
2018-05-03T07:16:11.149Z,25.43
2018-05-03T07:17:11.154Z,25.15
2018-05-03T07:18:11.165Z,25.69
2018-05-03T07:19:11.178Z,26.18
2018-05-03T07:20:11.224Z,26.74
2018-05-03T07:21:11.219Z,27.36
2018-05-03T07:22:11.228Z,27.96
2018-05-03T07:23:11.245Z,28.22
2018-05-03T07:24:11.256Z,28.47
2018-05-03T07:25:11.271Z,27.98
2018-05-03T07:26:11.292Z,27.26
2018-05-03T07:27:11.298Z,26.77
2018-05-03T07:28:11.320Z,26.55
2018-05-03T07:29:11.329Z,26.05
2018-05-03T07:30:11.351Z,26.77
2018-05-03T07:31:11.376Z,27.53
2018-05-03T07:32:11.376Z,27.59
2018-05-03T07:33:11.411Z,28.01
2018-05-03T07:34:11.410Z,27.94
2018-05-03T07:35:11.423Z,27.53
2018-05-03T07:36:11.450Z,26.83
2018-05-03T07:37:11.454Z,26.50
2018-05-03T07:38:11.481Z,26.83
2018-05-03T07:39:11.484Z,27.17
2018-05-03T07:40:11.513Z,27.11
2018-05-03T07:41:11.523Z,27.10
2018-05-03T07:42:11.539Z,26.96
2018-05-03T07:43:11.555Z,26.25
2018-05-03T07:44:11.598Z,25.65
2018-05-03T07:45:11.589Z,25.56
2018-05-03T07:46:11.664Z,24.98
2018-05-03T07:47:11.615Z,24.98
2018-05-03T07:48:11.643Z,24.97
2018-05-03T07:49:11.654Z,24.92
2018-05-03T07:50:11.683Z,24.79
2018-05-03T07:51:11.685Z,24.57
2018-05-03T07:52:11.724Z,24.49
2018-05-03T07:53:11.708Z,24.44
2018-05-03T07:54:11.732Z,24.83
2018-05-03T07:55:11.739Z,25.06
2018-05-03T07:56:11.761Z,25.84
2018-05-03T07:57:11.783Z,27.13
2018-05-03T07:58:11.794Z,27.69
2018-05-03T07:59:11.798Z,27.31
2018-05-03T08:00:11.819Z,26.73
2018-05-03T08:01:11.828Z,25.94
2018-05-03T08:02:11.875Z,25.49
2018-05-03T08:03:11.887Z,25.17
2018-05-03T08:04:11.893Z,24.91
2018-05-03T08:05:11.893Z,24.69
2018-05-03T08:06:11.909Z,24.54
2018-05-03T08:07:11.917Z,24.52
2018-05-03T08:08:11.958Z,24.23
2018-05-03T08:09:11.962Z,24.19
2018-05-03T08:10:11.971Z,24.39
2018-05-03T08:11:11.984Z,24.59
2018-05-03T08:12:11.995Z,24.57
2018-05-03T08:13:12.001Z,24.59
2018-05-03T08:14:12.120Z,24.47
2018-05-03T08:15:12.040Z,24.26
2018-05-03T08:16:12.125Z,24.14
2018-05-03T08:17:12.064Z,24.13
2018-05-03T08:18:12.085Z,24.50
2018-05-03T08:19:12.090Z,25.32
2018-05-03T08:20:12.105Z,26.09
2018-05-03T08:21:12.112Z,26.62
2018-05-03T08:22:12.138Z,27.01
2018-05-03T08:23:12.147Z,26.95
2018-05-03T08:24:12.165Z,27.10
2018-05-03T08:25:12.180Z,27.23
2018-05-03T08:26:12.185Z,27.38
2018-05-03T08:27:12.206Z,27.46
2018-05-03T08:28:12.218Z,27.84
2018-05-03T08:29:12.234Z,27.76
2018-05-03T08:30:12.252Z,27.91
2018-05-03T08:31:12.261Z,28.19
2018-05-03T08:32:12.282Z,27.14
2018-05-03T08:33:12.293Z,27.58
2018-05-03T08:34:12.318Z,27.24
2018-05-03T08:35:13.078Z,27.26
2018-05-03T08:36:12.342Z,27.20
2018-05-03T08:37:12.362Z,27.33
2018-05-03T08:38:12.372Z,27.31
2018-05-03T08:39:12.386Z,27.11
2018-05-03T08:40:12.405Z,26.96
2018-05-03T08:41:12.413Z,26.77
2018-05-03T08:42:12.441Z,25.71
2018-05-03T08:43:12.449Z,25.72
2018-05-03T08:44:12.471Z,25.99
2018-05-03T08:45:12.480Z,25.94
2018-05-03T08:46:12.549Z,25.89
2018-05-03T08:47:12.509Z,25.71
2018-05-03T08:48:12.537Z,26.17
2018-05-03T08:49:12.544Z,26.73
2018-05-03T08:50:12.562Z,27.02
2018-05-03T08:51:12.573Z,27.20
2018-05-03T08:52:12.591Z,27.42
2018-05-03T08:53:12.611Z,27.66
2018-05-03T08:54:12.630Z,28.16
2018-05-03T08:55:12.640Z,27.76
2018-05-03T08:56:12.655Z,26.69
2018-05-03T08:57:12.692Z,25.91
2018-05-03T08:58:12.690Z,25.25
2018-05-03T08:59:12.712Z,26.28
2018-05-03T09:00:12.716Z,26.62
2018-05-03T09:01:12.741Z,26.77
2018-05-03T09:02:12.760Z,26.20
2018-05-03T09:03:12.767Z,25.50
2018-05-03T09:04:12.796Z,24.61
2018-05-03T09:05:12.797Z,24.29
2018-05-03T09:06:12.820Z,24.71
2018-05-03T09:07:12.838Z,24.95
2018-05-03T09:08:12.851Z,24.77
2018-05-03T09:09:12.865Z,25.20
2018-05-03T09:10:12.879Z,25.16
2018-05-03T09:11:12.942Z,24.68
2018-05-03T09:12:12.934Z,24.37
2018-05-03T09:13:12.932Z,24.02
2018-05-03T09:14:12.932Z,24.19
2018-05-03T09:15:12.953Z,24.14
2018-05-03T09:16:12.986Z,24.53
2018-05-03T09:17:12.979Z,24.20
2018-05-03T09:18:12.997Z,23.94
2018-05-03T09:19:13.013Z,23.83
2018-05-03T09:20:13.029Z,23.80
2018-05-03T09:21:13.039Z,23.39
2018-05-03T09:22:13.057Z,23.23
2018-05-03T09:23:13.061Z,22.90
2018-05-03T09:24:13.085Z,22.75
2018-05-03T09:25:13.101Z,22.57
2018-05-03T09:26:13.149Z,22.43
2018-05-03T09:27:13.128Z,22.50
2018-05-03T09:28:13.132Z,22.46
2018-05-03T09:29:13.149Z,22.56
2018-05-03T09:30:13.157Z,22.77
2018-05-03T09:31:13.173Z,23.68
2018-05-03T09:32:13.183Z,24.50
2018-05-03T09:33:13.196Z,24.80
2018-05-03T09:34:13.209Z,25.06
2018-05-03T09:35:13.219Z,25.31
2018-05-03T09:36:13.233Z,25.71
2018-05-03T09:37:13.255Z,25.34
2018-05-03T09:38:13.257Z,24.52
2018-05-03T09:39:13.371Z,24.16
2018-05-03T09:40:13.290Z,24.64
2018-05-03T09:41:13.303Z,24.67
2018-05-03T09:42:13.318Z,24.34
2018-05-03T09:43:13.330Z,23.90
2018-05-03T09:44:13.348Z,24.26
2018-05-03T09:45:13.362Z,24.38
2018-05-03T09:46:13.364Z,24.45
2018-05-03T09:47:13.383Z,24.68
2018-05-03T09:48:13.400Z,24.90
2018-05-03T09:49:13.412Z,24.97
2018-05-03T09:50:13.416Z,24.69
2018-05-03T09:51:13.442Z,24.63
2018-05-03T09:52:13.449Z,24.64
2018-05-03T09:53:13.463Z,24.60
2018-05-03T09:54:13.487Z,24.92
2018-05-03T09:55:13.492Z,25.05
2018-05-03T09:56:13.504Z,24.94
2018-05-03T09:57:13.523Z,25.16
2018-05-03T09:58:13.529Z,25.35
2018-05-03T09:59:13.551Z,25.80
2018-05-03T10:00:13.565Z,25.98
2018-05-03T10:01:13.573Z,26.06
2018-05-03T10:02:13.596Z,25.79
2018-05-03T10:03:13.605Z,25.71
2018-05-03T10:04:13.617Z,25.74
2018-05-03T10:05:13.637Z,26.15
2018-05-03T10:06:13.647Z,25.80
2018-05-03T10:07:13.672Z,25.28
2018-05-03T10:08:13.684Z,25.05
2018-05-03T10:09:13.699Z,24.69
2018-05-03T10:10:13.721Z,24.37
2018-05-03T10:11:13.730Z,24.10
2018-05-03T10:12:13.734Z,23.90
2018-05-03T10:13:13.764Z,24.10
2018-05-03T10:14:13.763Z,24.35
2018-05-03T10:15:13.781Z,24.68
2018-05-03T10:16:13.795Z,24.82
2018-05-03T10:17:13.811Z,24.97
2018-05-03T10:18:13.819Z,25.12
2018-05-03T10:19:13.841Z,25.17
2018-05-03T10:20:13.849Z,24.98
2018-05-03T10:21:13.867Z,25.10
2018-05-03T10:22:13.885Z,25.17
2018-05-03T10:23:13.897Z,25.30
2018-05-03T10:24:13.914Z,25.01
2018-05-03T10:25:13.924Z,25.01
2018-05-03T10:26:13.942Z,24.35
2018-05-03T10:27:13.947Z,23.87
2018-05-03T10:28:13.974Z,23.72
2018-05-03T10:29:13.977Z,23.75
2018-05-03T10:30:14.043Z,24.34
2018-05-03T10:31:14.008Z,24.76
2018-05-03T10:32:14.025Z,24.56
2018-05-03T10:33:14.038Z,24.71
2018-05-03T10:34:14.060Z,24.38
2018-05-03T10:35:14.064Z,24.73
2018-05-03T10:36:14.092Z,25.05
2018-05-03T10:37:14.131Z,25.07
2018-05-03T10:38:14.110Z,25.32
2018-05-03T10:39:14.126Z,25.15
2018-05-03T10:40:14.142Z,25.07
2018-05-03T10:41:14.154Z,25.06
2018-05-03T10:42:14.192Z,25.15
2018-05-03T10:43:14.191Z,25.17
2018-05-03T10:44:14.197Z,25.13
2018-05-03T10:45:14.212Z,25.32
2018-05-03T10:46:14.240Z,25.16
2018-05-03T10:47:15.137Z,24.90
2018-05-03T10:48:14.262Z,25.09
2018-05-03T10:49:14.284Z,25.22
2018-05-03T10:50:14.293Z,25.31
2018-05-03T10:51:14.316Z,25.17
2018-05-03T10:52:14.337Z,25.17
2018-05-03T10:53:14.344Z,25.17
2018-05-03T10:54:14.358Z,24.97
2018-05-03T10:55:14.401Z,24.92
2018-05-03T10:56:14.418Z,24.97
2018-05-03T10:57:14.404Z,24.71
2018-05-03T10:58:14.425Z,24.75
2018-05-03T10:59:14.431Z,24.85
2018-05-03T11:00:14.447Z,24.61
2018-05-03T11:01:14.465Z,24.56
2018-05-03T11:02:14.486Z,24.61
2018-05-03T11:03:14.504Z,24.32
2018-05-03T11:04:14.513Z,24.05
2018-05-03T11:05:14.615Z,23.68
2018-05-03T11:06:14.541Z,23.58
2018-05-03T11:07:14.555Z,23.55
2018-05-03T11:08:14.576Z,23.89
2018-05-03T11:09:14.587Z,23.97
2018-05-03T11:10:14.613Z,23.86
2018-05-03T11:11:14.704Z,23.62
2018-05-03T11:12:14.630Z,23.90
2018-05-03T11:13:14.651Z,24.00
2018-05-03T11:14:14.662Z,24.01
2018-05-03T11:15:14.677Z,24.01
2018-05-03T11:16:14.690Z,23.87
2018-05-03T11:17:14.702Z,23.75
2018-05-03T11:18:14.725Z,23.77
2018-05-03T11:19:14.733Z,23.82
2018-05-03T11:20:14.758Z,24.22
2018-05-03T11:21:14.759Z,24.44
2018-05-03T11:22:14.780Z,24.41
2018-05-03T11:23:14.792Z,24.41
2018-05-03T11:24:14.815Z,24.56
2018-05-03T11:25:14.868Z,24.31
2018-05-03T11:26:14.855Z,24.10
2018-05-03T11:27:14.852Z,24.20
2018-05-03T11:28:14.866Z,23.83
2018-05-03T11:29:14.874Z,23.86
2018-05-03T11:30:14.909Z,23.95
2018-05-03T11:31:14.902Z,23.83
2018-05-03T11:32:14.931Z,23.83
2018-05-03T11:33:14.941Z,23.98
2018-05-03T11:34:14.946Z,23.72
2018-05-03T11:35:14.967Z,23.58
2018-05-03T11:36:14.975Z,23.61
2018-05-03T11:37:14.996Z,23.83
2018-05-03T11:38:15.005Z,24.02
2018-05-03T11:39:15.026Z,24.05
2018-05-03T11:40:15.031Z,24.23
2018-05-03T11:41:15.043Z,24.14
2018-05-03T11:42:15.072Z,24.01
2018-05-03T11:43:15.073Z,23.80
2018-05-03T11:44:15.092Z,23.68
2018-05-03T11:45:15.099Z,23.68
2018-05-03T11:46:15.127Z,23.68
2018-05-03T11:47:15.137Z,23.50
2018-05-03T11:48:15.146Z,23.38
2018-05-03T11:49:15.155Z,23.17
2018-05-03T11:50:15.166Z,22.83
2018-05-03T11:51:15.175Z,22.53
2018-05-03T11:52:15.200Z,22.56
2018-05-03T11:53:15.204Z,22.37
2018-05-03T11:54:15.220Z,22.39
2018-05-03T11:55:15.236Z,22.23
2018-05-03T11:56:15.271Z,22.22
2018-05-03T11:57:15.259Z,22.06
2018-05-03T11:58:15.267Z,22.07
2018-05-03T11:59:15.319Z,22.06
2018-05-03T12:00:15.291Z,22.02
2018-05-03T12:01:15.295Z,22.06
2018-05-03T12:02:15.319Z,22.19
2018-05-03T12:03:15.323Z,22.23
2018-05-03T12:04:15.349Z,22.22
2018-05-03T12:05:15.354Z,22.34
2018-05-03T12:06:15.374Z,22.43
2018-05-03T12:07:15.374Z,22.32
2018-05-03T12:08:15.381Z,22.14
2018-05-03T12:09:15.393Z,22.06
2018-05-03T12:10:15.401Z,22.09
2018-05-03T12:11:15.412Z,21.66
2018-05-03T12:12:15.424Z,21.59
2018-05-03T12:13:15.436Z,21.45
2018-05-03T12:14:15.447Z,21.48
2018-05-03T12:15:15.455Z,21.57
2018-05-03T12:16:15.474Z,21.66
2018-05-03T12:17:15.481Z,21.74
2018-05-03T12:18:15.491Z,21.75
2018-05-03T12:19:15.501Z,21.85
2018-05-03T12:20:15.506Z,21.99
2018-05-03T12:21:15.513Z,21.97
2018-05-03T12:22:15.543Z,21.99
2018-05-03T12:23:15.532Z,21.98
2018-05-03T12:24:15.562Z,21.99
2018-05-03T12:25:15.567Z,21.91
2018-05-03T12:26:15.578Z,21.79
2018-05-03T12:27:15.584Z,21.88
2018-05-03T12:28:15.589Z,21.85
2018-05-03T12:29:15.592Z,21.88
2018-05-03T12:30:15.605Z,21.94
2018-05-03T12:31:15.612Z,21.95
2018-05-03T12:32:15.627Z,21.81
2018-05-03T12:33:15.633Z,21.90
2018-05-03T12:34:15.647Z,21.97
2018-05-03T12:35:15.686Z,22.01
2018-05-03T12:36:15.666Z,22.04
2018-05-03T12:37:15.668Z,22.02
2018-05-03T12:38:15.695Z,21.85
2018-05-03T12:39:15.691Z,21.83
2018-05-03T12:40:15.709Z,21.76
2018-05-03T12:41:15.708Z,21.69
2018-05-03T12:42:15.722Z,21.64
2018-05-03T12:43:15.723Z,21.76
2018-05-03T12:44:15.742Z,21.90
2018-05-03T12:45:15.744Z,21.75
2018-05-03T12:46:15.762Z,21.79
2018-05-03T12:47:15.766Z,21.67
2018-05-03T12:48:15.775Z,21.76
2018-05-03T12:49:15.782Z,21.60
2018-05-03T12:50:15.789Z,21.53
2018-05-03T12:51:15.813Z,21.45
2018-05-03T12:52:15.808Z,21.56